Hattiesburg Bobby L Chain Municipal Airport
KHBG : now visible

Airfield :











YOU CAN JOIN US ON...

 
LOGIN :

Register | Disclaimer

   EN    FR    IT 

 









Legend :    VFR   Marginal VFR   IFR   Intensive IFR   Very Intensive IFR
Visi :
Ceiling :
>= 8 km
>= 3000ft
5 to 8 km
1000 to 3000 ft
1500m to 5 km
500 to 1000 ft
800 to 1500m
200 to 500 ft
< 800m
< 200 ft
Symbols :   Thunderstorms  Fog  Heavy snow  Heavy precipitations  Wind > 20 kt






- Airport Elevation : 151 ft


KHBG - Hattiesburg Bobby L Chain Municipal

CURRENT METAR :
  • 101753Z AUTO 00000KT 10SM CLR 21/16 A2977 RMK AO2 SLP079 60000 T02110156 10211 20156 58006

EXPIRED METARs :
  • 101722Z AUTO 00000KT 10SM SCT014 21/16 A2977 RMK AO2 T02060156
  • 101653Z AUTO 19005KT 10SM BKN013 19/16 A2979 RMK AO2 SLP085 T01940156
  • 101627Z AUTO 22006KT 10SM BKN010 18/16 A2979 RMK AO2 T01830156
  • 101602Z AUTO 22007KT 10SM BKN008 17/15 A2979 RMK AO2 T01720150
  • 101551Z AUTO 19006KT 10SM SCT008 17/15 A2979 RMK AO2
  • 101540Z AUTO 22005KT 10SM BKN008 17/15 A2980 RMK AO2 CIG 006V011 T01670150

TAF KHBG
Valid from the 10 at 18:00 until the 11 at 18:00 UTC


101723Z 1018/1118 19005KT P6SM BKN013
FM102100 30008KT P6SM SCT250
FM110900 32003KT 4SM BR SKC
FM111300 33004KT 6SM BR SKC
KZHU FIR / North America



MET'MAP, your aeronautical weather chart ! - Copyright ORBIFLY December 2007 - Disclaimer

ORBIFLY MET'MAP TEAM :

Programming & Development : Alexandra Zaïnal
Concept & original design : Baudouin d'Aumeries
Assistance for programming : Marc-Olivier Méhu
Technical & hardware support : Manuel Goepfert

Contact : metmap@orbifly.com




SOURCES & CREDITS :

   NOAA       Earth
Advisory